createdAt,value
2019-04-11T00:04:03.982Z,11.10
2019-04-11T00:06:43.743Z,11.20
2019-04-11T00:09:24.870Z,11.30
2019-04-11T00:12:06.300Z,11.20
2019-04-11T00:14:46.988Z,11.20
2019-04-11T00:17:27.984Z,11.20
2019-04-11T00:20:09.616Z,11.30
2019-04-11T00:22:50.117Z,11.30
2019-04-11T00:25:19.754Z,11.20
2019-04-11T00:31:00.833Z,11.30
2019-04-11T00:33:42.643Z,11.20
2019-04-11T00:36:22.473Z,11.20
2019-04-11T00:39:05.573Z,11.10
2019-04-11T00:41:46.042Z,11.10
2019-04-11T00:44:27.116Z,11.10
2019-04-11T00:47:07.011Z,11.10
2019-04-11T00:49:46.950Z,10.90
2019-04-11T00:52:27.488Z,11.00
2019-04-11T00:55:08.144Z,11.00
2019-04-11T00:57:48.131Z,11.00
2019-04-11T01:00:29.068Z,11.00
2019-04-11T01:03:09.729Z,11.00
2019-04-11T01:05:50.181Z,11.00
2019-04-11T01:08:31.288Z,11.00
2019-04-11T01:11:11.982Z,11.00
2019-04-11T01:13:55.311Z,11.00
2019-04-11T01:19:43.767Z,11.00
2019-04-11T01:22:24.394Z,11.10
2019-04-11T01:25:04.601Z,11.10
2019-04-11T01:27:45.583Z,10.80
2019-04-11T01:30:33.250Z,11.00
2019-04-11T01:33:15.746Z,11.00
2019-04-11T01:35:57.396Z,11.00
2019-04-11T01:38:42.178Z,11.00
2019-04-11T01:41:22.506Z,11.00
2019-04-11T01:44:05.318Z,10.90
2019-04-11T01:46:44.475Z,10.90
2019-04-11T01:49:24.339Z,11.00
2019-04-11T01:52:05.037Z,11.00
2019-04-11T01:54:45.924Z,11.00
2019-04-11T01:57:25.858Z,11.10
2019-04-11T02:00:09.400Z,11.10
2019-04-11T02:09:01.913Z,11.40
2019-04-11T02:11:42.557Z,11.20
2019-04-11T02:14:24.126Z,11.30
2019-04-11T02:17:04.366Z,11.30
2019-04-11T02:19:44.762Z,11.40
2019-04-11T02:22:43.867Z,11.30
2019-04-11T02:25:42.973Z,11.10
2019-04-11T02:28:22.776Z,11.10
2019-04-11T02:31:04.824Z,11.00
2019-04-11T02:33:46.761Z,11.00
2019-04-11T02:36:29.101Z,11.10
2019-04-11T02:39:12.893Z,11.20
2019-04-11T02:41:52.706Z,11.20
2019-04-11T02:44:52.408Z,11.20
2019-04-11T02:47:21.791Z,11.10
2019-04-11T02:49:57.251Z,11.30
2019-04-11T02:52:38.517Z,11.20
2019-04-11T02:55:21.046Z,11.20
2019-04-11T02:58:01.789Z,11.40
2019-04-11T03:00:44.937Z,11.30
2019-04-11T03:03:25.480Z,11.10
2019-04-11T03:05:53.783Z,11.20
2019-04-11T03:08:43.575Z,11.20
2019-04-11T03:11:26.081Z,11.30
2019-04-11T03:14:07.690Z,11.40
2019-04-11T03:16:59.008Z,11.20
2019-04-11T03:19:44.055Z,11.40
2019-04-11T03:22:13.963Z,11.30
2019-04-11T03:24:55.409Z,11.40
2019-04-11T03:27:37.651Z,11.40
2019-04-11T03:30:42.382Z,11.70
2019-04-11T03:36:36.590Z,11.60
2019-04-11T03:38:58.811Z,11.60
2019-04-11T03:41:32.880Z,11.50
2019-04-11T03:44:06.573Z,11.60
2019-04-11T03:46:52.753Z,11.70
2019-04-11T03:49:32.898Z,11.60
2019-04-11T03:52:05.731Z,11.50
2019-04-11T03:54:47.505Z,11.50
2019-04-11T03:57:29.788Z,11.30
2019-04-11T04:00:10.260Z,11.50
2019-04-11T04:02:52.539Z,11.50
2019-04-11T04:05:36.518Z,11.50
2019-04-11T04:08:14.654Z,11.30
2019-04-11T04:11:14.955Z,11.40
2019-04-11T04:14:17.173Z,11.40
2019-04-11T04:17:17.091Z,10.90
2019-04-11T04:23:08.133Z,10.90
2019-04-11T04:25:51.276Z,10.70
2019-04-11T04:28:33.334Z,10.70
2019-04-11T04:31:14.138Z,10.50
2019-04-11T04:33:55.387Z,10.50
2019-04-11T04:36:35.971Z,10.50
2019-04-11T04:39:17.286Z,10.20
2019-04-11T04:42:05.841Z,10.20
2019-04-11T04:44:40.383Z,10.10
2019-04-11T04:47:32.628Z,10.20
2019-04-11T04:50:06.188Z,10.00
2019-04-11T04:52:46.798Z,10.00
2019-04-11T04:55:28.562Z,10.00
2019-04-11T04:58:09.114Z,10.00
2019-04-11T05:00:51.967Z,10.00
2019-04-11T05:03:32.049Z,10.00
2019-04-11T05:06:14.031Z,10.10
2019-04-11T05:08:55.866Z,10.10
2019-04-11T05:11:38.119Z,10.10
2019-04-11T05:14:18.904Z,9.90
2019-04-11T05:16:58.620Z,9.90
2019-04-11T05:19:38.642Z,9.90
2019-04-11T05:22:20.249Z,10.00
2019-04-11T05:25:03.141Z,9.90
2019-04-11T05:27:40.354Z,9.90
2019-04-11T05:30:27.425Z,9.90
2019-04-11T05:33:07.705Z,9.90
2019-04-11T05:35:48.043Z,9.90
2019-04-11T05:38:27.883Z,9.80
2019-04-11T05:41:12.091Z,9.80
2019-04-11T05:46:55.705Z,9.90
2019-04-11T05:52:36.739Z,9.90
2019-04-11T05:55:17.676Z,9.90
2019-04-11T05:57:58.700Z,9.90
2019-04-11T06:00:46.932Z,9.90
2019-04-11T06:03:28.147Z,9.90
2019-04-11T06:06:24.643Z,9.90
2019-04-11T06:09:11.735Z,9.90
2019-04-11T06:12:11.636Z,9.90
2019-04-11T06:14:44.452Z,9.90
2019-04-11T06:17:32.351Z,9.90
2019-04-11T06:20:33.442Z,10.00
2019-04-11T06:23:33.606Z,9.90
2019-04-11T06:26:32.705Z,10.00
2019-04-11T06:29:26.520Z,9.90
2019-04-11T06:32:24.885Z,10.00
2019-04-11T06:35:11.496Z,10.00
2019-04-11T06:38:12.223Z,10.20
2019-04-11T06:50:17.866Z,10.30
2019-04-11T06:58:47.832Z,10.70
2019-04-11T07:01:30.061Z,10.60
2019-04-11T07:07:00.231Z,10.90
2019-04-11T07:10:00.085Z,10.80
2019-04-11T07:12:49.363Z,11.00
2019-04-11T07:15:35.565Z,11.00
2019-04-11T07:18:35.715Z,11.00
2019-04-11T07:21:17.068Z,11.20
2019-04-11T07:24:16.665Z,11.00
2019-04-11T07:27:01.692Z,11.20
2019-04-11T07:30:05.170Z,11.20
2019-04-11T07:32:45.735Z,11.10
2019-04-11T07:35:51.270Z,10.60
2019-04-11T07:38:38.828Z,11.20
2019-04-11T07:41:39.643Z,11.50
2019-04-11T07:47:25.235Z,11.40
2019-04-11T07:50:05.741Z,11.40
2019-04-11T07:52:56.081Z,11.30
2019-04-11T07:55:38.693Z,11.50
2019-04-11T07:58:28.608Z,11.70
2019-04-11T08:04:45.230Z,11.40
2019-04-11T08:14:00.142Z,11.40
2019-04-11T08:16:59.553Z,11.20
2019-04-11T08:19:59.598Z,11.20
2019-04-11T08:22:43.249Z,11.10
2019-04-11T08:31:43.027Z,11.10
2019-04-11T08:34:23.659Z,11.00
2019-04-11T08:37:23.358Z,10.80
2019-04-11T08:40:03.925Z,10.80
2019-04-11T08:43:10.800Z,10.80
2019-04-11T08:45:56.242Z,10.80
2019-04-11T08:48:39.322Z,10.80
2019-04-11T08:51:20.055Z,11.10
2019-04-11T08:54:22.276Z,10.90
2019-04-11T08:57:03.255Z,10.90
2019-04-11T08:59:51.441Z,10.90
2019-04-11T09:02:35.503Z,11.00
2019-04-11T09:05:35.438Z,11.00
2019-04-11T09:08:23.435Z,11.00
2019-04-11T09:11:24.637Z,10.90
2019-04-11T09:14:26.320Z,10.90
2019-04-11T09:17:14.854Z,10.90
2019-04-11T09:20:15.588Z,10.90
2019-04-11T09:23:07.133Z,10.70
2019-04-11T09:28:55.021Z,10.80
2019-04-11T09:37:52.323Z,10.50
2019-04-11T09:40:52.129Z,10.50
2019-04-11T09:43:33.820Z,10.40
2019-04-11T09:46:32.393Z,10.80
2019-04-11T09:52:33.724Z,10.60
2019-04-11T09:55:33.235Z,10.40
2019-04-11T09:58:33.731Z,10.50
2019-04-11T10:01:33.128Z,10.40
2019-04-11T10:04:14.282Z,10.30
2019-04-11T10:07:20.192Z,10.30
2019-04-11T10:10:19.600Z,10.70
2019-04-11T10:13:18.797Z,10.70
2019-04-11T10:16:24.202Z,10.50
2019-04-11T10:22:22.740Z,10.50
2019-04-11T10:25:08.204Z,10.70
2019-04-11T10:28:09.719Z,10.50
2019-04-11T10:31:10.466Z,10.80
2019-04-11T10:34:11.131Z,11.00
2019-04-11T10:37:01.285Z,10.80
2019-04-11T10:40:00.087Z,11.00
2019-04-11T10:42:42.488Z,10.40
2019-04-11T10:45:31.164Z,10.50
2019-04-11T10:48:11.720Z,10.40
2019-04-11T10:51:11.250Z,10.30
2019-04-11T10:53:53.332Z,10.70
2019-04-11T10:56:43.544Z,10.70
2019-04-11T10:59:27.829Z,10.70
2019-04-11T11:02:27.485Z,10.80
2019-04-11T11:05:07.410Z,11.00
2019-04-11T11:07:47.203Z,11.10
2019-04-11T11:10:29.299Z,11.00
2019-04-11T11:13:29.846Z,11.00
2019-04-11T11:16:11.815Z,10.90
2019-04-11T11:19:44.175Z,11.00
2019-04-11T11:22:00.425Z,11.40
2019-04-11T11:25:00.141Z,11.50
2019-04-11T11:27:41.613Z,11.80
2019-04-11T11:30:47.417Z,11.60
2019-04-11T11:33:29.983Z,11.60
2019-04-11T11:36:37.622Z,11.60
2019-04-11T11:39:26.903Z,11.70
2019-04-11T11:42:28.297Z,12.00
2019-04-11T11:45:19.908Z,11.70
2019-04-11T11:48:09.954Z,12.10
2019-04-11T11:50:49.157Z,11.80
2019-04-11T11:53:35.804Z,11.80
2019-04-11T11:56:22.800Z,11.80
2019-04-11T11:59:23.012Z,11.90
2019-04-11T12:02:32.730Z,12.00
2019-04-11T12:05:18.050Z,12.10
2019-04-11T12:08:13.612Z,12.10
2019-04-11T12:10:55.559Z,12.20
2019-04-11T12:13:55.805Z,12.20
2019-04-11T12:17:00.311Z,12.00
2019-04-11T12:20:04.813Z,12.30
2019-04-11T12:22:40.724Z,12.40
2019-04-11T12:25:25.103Z,12.40
2019-04-11T12:28:15.334Z,12.30
2019-04-11T12:31:01.444Z,12.50
2019-04-11T12:34:01.695Z,12.40
2019-04-11T12:36:46.985Z,12.50
2019-04-11T12:39:44.721Z,12.60
2019-04-11T12:42:28.128Z,12.70
2019-04-11T12:45:30.091Z,12.60
2019-04-11T12:48:12.195Z,12.60
2019-04-11T12:51:12.467Z,13.00
2019-04-11T12:53:52.207Z,12.80
2019-04-11T12:56:51.770Z,12.80
2019-04-11T12:59:31.491Z,12.90
2019-04-11T13:02:27.455Z,12.60
2019-04-11T13:05:09.830Z,12.90
2019-04-11T13:08:09.521Z,12.60
2019-04-11T13:10:49.636Z,12.70
2019-04-11T13:13:37.463Z,12.70
2019-04-11T13:16:17.598Z,12.80
2019-04-11T13:19:10.992Z,13.00
2019-04-11T13:21:56.751Z,12.90
2019-04-11T13:24:56.257Z,13.30
2019-04-11T13:27:42.588Z,13.30
2019-04-11T13:30:41.647Z,13.20
2019-04-11T13:33:23.815Z,13.30
2019-04-11T13:36:17.008Z,13.30
2019-04-11T13:38:57.435Z,13.30
2019-04-11T13:44:41.488Z,13.70
2019-04-11T13:47:40.961Z,13.60
2019-04-11T13:50:20.775Z,13.60
2019-04-11T13:56:30.350Z,13.80
2019-04-11T13:59:29.789Z,13.60
2019-04-11T14:02:18.067Z,13.70
2019-04-11T14:04:57.927Z,13.60
2019-04-11T14:07:40.307Z,13.40
2019-04-11T14:10:20.176Z,13.60
2019-04-11T14:13:01.053Z,13.60
2019-04-11T14:15:43.424Z,13.70
2019-04-11T14:18:36.816Z,13.80
2019-04-11T14:21:18.513Z,13.60
2019-04-11T14:27:02.183Z,13.70
2019-04-11T14:29:56.352Z,13.80
2019-04-11T14:32:40.189Z,13.90
2019-04-11T14:35:39.518Z,13.70
2019-04-11T14:38:21.892Z,13.90
2019-04-11T14:41:22.313Z,13.80
2019-04-11T14:44:03.143Z,13.70
2019-04-11T14:47:06.675Z,13.60
2019-04-11T14:49:47.805Z,13.80
2019-04-11T14:52:47.267Z,13.90
2019-04-11T14:55:27.830Z,13.90
2019-04-11T14:58:27.245Z,13.90
2019-04-11T15:01:10.519Z,13.80
2019-04-11T15:04:13.400Z,14.00
2019-04-11T15:06:52.995Z,13.90
2019-04-11T15:09:58.683Z,14.20
2019-04-11T15:12:38.242Z,13.90
2019-04-11T15:15:37.761Z,13.80
2019-04-11T15:18:19.296Z,13.70
2019-04-11T15:21:18.536Z,13.30
2019-04-11T15:23:58.188Z,13.80
2019-04-11T15:26:57.662Z,13.80
2019-04-11T15:29:38.829Z,13.70
2019-04-11T15:32:37.888Z,13.70
2019-04-11T15:35:24.984Z,13.70
2019-04-11T15:38:24.443Z,13.50
2019-04-11T15:41:05.747Z,13.50
2019-04-11T15:44:08.566Z,13.50
2019-04-11T15:46:48.561Z,13.60
2019-04-11T15:49:48.104Z,13.50
2019-04-11T15:52:27.925Z,13.40
2019-04-11T15:55:37.532Z,13.80
2019-04-11T15:58:15.476Z,13.30
2019-04-11T16:01:08.039Z,13.40
2019-04-11T16:03:48.861Z,13.30
2019-04-11T16:06:38.899Z,13.40
2019-04-11T16:09:24.864Z,13.30
2019-04-11T16:12:16.391Z,13.30
2019-04-11T16:14:44.220Z,13.20
2019-04-11T16:17:50.671Z,13.20
2019-04-11T16:20:37.648Z,13.10
2019-04-11T16:23:26.270Z,13.30
2019-04-11T16:26:09.144Z,13.10
2019-04-11T16:29:09.198Z,13.10
2019-04-11T16:31:48.919Z,13.00
2019-04-11T16:34:51.566Z,12.90
2019-04-11T16:37:30.736Z,13.00
2019-04-11T16:40:30.085Z,12.90
2019-04-11T16:43:10.317Z,12.90
2019-04-11T16:46:09.993Z,13.20
2019-04-11T16:48:50.152Z,13.40
2019-04-11T16:51:31.364Z,12.80
2019-04-11T16:54:11.718Z,12.70
2019-04-11T16:56:51.678Z,12.70
2019-04-11T16:59:31.889Z,12.80
2019-04-11T17:02:12.166Z,12.50
2019-04-11T17:04:55.615Z,12.50
2019-04-11T17:10:50.989Z,12.40
2019-04-11T17:13:32.293Z,12.30
2019-04-11T17:16:15.380Z,12.20
2019-04-11T17:18:55.296Z,12.10
2019-04-11T17:21:43.191Z,12.10
2019-04-11T17:24:17.896Z,11.90
2019-04-11T17:26:58.032Z,12.10
2019-04-11T17:29:38.159Z,11.90
2019-04-11T17:32:18.112Z,12.10
2019-04-11T17:35:01.322Z,12.20
2019-04-11T17:37:27.715Z,12.00
2019-04-11T17:40:14.891Z,11.80
2019-04-11T17:43:01.892Z,11.90
2019-04-11T17:45:41.935Z,11.70
2019-04-11T17:48:21.780Z,11.80
2019-04-11T17:50:49.425Z,11.80
2019-04-11T17:53:36.432Z,11.70
2019-04-11T17:56:25.344Z,11.70
2019-04-11T17:59:05.280Z,11.60
2019-04-11T18:01:45.237Z,11.60
2019-04-11T18:04:25.299Z,11.70
2019-04-11T18:07:05.445Z,11.50
2019-04-11T18:09:45.404Z,11.50
2019-04-11T18:12:26.759Z,11.40
2019-04-11T18:15:07.585Z,11.40
2019-04-11T18:17:48.030Z,11.20
2019-04-11T18:20:27.988Z,11.10
2019-04-11T18:23:07.959Z,11.00
2019-04-11T18:25:48.907Z,10.90
2019-04-11T18:28:29.864Z,11.00
2019-04-11T18:31:10.212Z,10.80
2019-04-11T18:33:50.223Z,10.90
2019-04-11T18:39:28.564Z,10.80
2019-04-11T18:42:08.839Z,10.80
2019-04-11T18:44:48.915Z,10.70
2019-04-11T18:47:16.555Z,10.60
2019-04-11T18:50:25.019Z,10.70
2019-04-11T18:53:12.039Z,10.70
2019-04-11T18:55:54.159Z,10.90
2019-04-11T18:58:34.655Z,10.70
2019-04-11T19:01:14.663Z,10.70
2019-04-11T19:03:54.545Z,10.70
2019-04-11T19:06:34.589Z,10.90
2019-04-11T19:09:15.624Z,11.10
2019-04-11T19:11:55.830Z,11.00
2019-04-11T19:17:37.288Z,10.70
2019-04-11T19:20:19.248Z,10.60
2019-04-11T19:22:59.120Z,10.50
2019-04-11T19:25:44.466Z,10.50
2019-04-11T19:28:24.950Z,10.50
2019-04-11T19:31:04.505Z,10.50
2019-04-11T19:33:34.179Z,10.40
2019-04-11T19:36:20.955Z,10.50
2019-04-11T19:39:08.048Z,10.50
2019-04-11T19:41:55.072Z,10.60
2019-04-11T19:44:35.243Z,10.50
2019-04-11T19:47:15.712Z,10.70
2019-04-11T19:49:58.545Z,10.60
2019-04-11T19:52:45.162Z,10.60
2019-04-11T19:58:36.695Z,10.60
2019-04-11T20:01:17.923Z,11.00
2019-04-11T20:03:57.871Z,10.90
2019-04-11T20:06:37.927Z,10.80
2019-04-11T20:09:18.007Z,10.80
2019-04-11T20:11:45.719Z,10.80
2019-04-11T20:14:34.858Z,10.80
2019-04-11T20:17:22.005Z,10.80
2019-04-11T20:20:06.707Z,10.70
2019-04-11T20:22:43.909Z,10.90
2019-04-11T20:25:24.009Z,10.80
2019-04-11T20:28:04.076Z,10.80
2019-04-11T20:30:44.349Z,10.80
2019-04-11T20:33:27.196Z,10.60
2019-04-11T20:36:08.105Z,10.70
2019-04-11T20:38:48.931Z,10.90
2019-04-11T20:41:16.543Z,11.20
2019-04-11T20:44:03.584Z,11.00
2019-04-11T20:46:50.621Z,10.90
2019-04-11T20:49:32.354Z,10.90
2019-04-11T20:57:57.481Z,10.80
2019-04-11T21:00:50.854Z,10.80
2019-04-11T21:03:29.915Z,10.70
2019-04-11T21:06:08.918Z,10.60
2019-04-11T21:08:36.795Z,10.60
2019-04-11T21:11:27.242Z,10.60
2019-04-11T21:14:07.706Z,10.50
2019-04-11T21:16:47.550Z,10.70
2019-04-11T21:19:15.586Z,10.50
2019-04-11T21:22:02.565Z,10.50
2019-04-11T21:24:43.179Z,10.50
2019-04-11T21:27:23.150Z,10.50
2019-04-11T21:30:03.274Z,10.50
2019-04-11T21:32:43.313Z,10.50
2019-04-11T21:35:23.295Z,10.50
2019-04-11T21:38:03.418Z,10.20
2019-04-11T21:40:43.534Z,10.20
2019-04-11T21:43:23.595Z,10.30
2019-04-11T21:46:04.092Z,10.20
2019-04-11T21:48:46.030Z,10.20
2019-04-11T21:51:26.470Z,10.60
2019-04-11T21:54:06.698Z,10.30
2019-04-11T21:56:49.623Z,10.40
2019-04-11T21:59:28.966Z,10.30
2019-04-11T22:02:13.397Z,10.20
2019-04-11T22:04:41.228Z,10.10
2019-04-11T22:07:30.781Z,10.10
2019-04-11T22:10:10.346Z,10.10
2019-04-11T22:12:50.355Z,10.00
2019-04-11T22:15:30.325Z,10.00
2019-04-11T22:18:10.217Z,9.90
2019-04-11T22:20:50.390Z,10.00
2019-04-11T22:23:30.075Z,10.30
2019-04-11T22:26:10.206Z,10.10
2019-04-11T22:32:03.394Z,10.10
2019-04-11T22:34:45.391Z,10.00
2019-04-11T22:37:27.719Z,9.70
2019-04-11T22:40:07.866Z,9.70
2019-04-11T22:42:48.273Z,9.50
2019-04-11T22:45:16.022Z,9.00
2019-04-11T22:48:03.025Z,9.40
2019-04-11T22:50:50.045Z,9.30
2019-04-11T22:53:30.354Z,9.10
2019-04-11T22:56:11.803Z,9.10
2019-04-11T22:58:52.591Z,9.00
2019-04-11T23:01:33.229Z,8.90
2019-04-11T23:04:16.595Z,9.30
2019-04-11T23:06:55.374Z,9.00
2019-04-11T23:09:35.377Z,9.10
2019-04-11T23:12:15.851Z,8.80
2019-04-11T23:14:56.375Z,9.20
2019-04-11T23:17:38.017Z,9.00
2019-04-11T23:20:18.529Z,9.00
2019-04-11T23:22:46.268Z,8.90
2019-04-11T23:25:33.445Z,8.90
2019-04-11T23:28:15.820Z,8.90
2019-04-11T23:30:55.909Z,8.90
2019-04-11T23:33:36.109Z,9.40
2019-04-11T23:36:18.781Z,9.30
2019-04-11T23:38:58.373Z,9.00
2019-04-11T23:41:40.236Z,8.90
2019-04-11T23:44:20.952Z,8.60
2019-04-11T23:46:59.125Z,8.70
2019-04-11T23:49:46.177Z,8.90
2019-04-11T23:52:15.397Z,8.70
2019-04-11T23:55:02.481Z,8.70
2019-04-11T23:57:49.797Z,8.70
